sensor_id;sensor_type;location;lat;lon;timestamp;pressure;altitude;pressure_sealevel;temperature;humidity
42001;BME280;27689;48.390;10.856;2023-04-07T00:01:15;96126.69;;;7.06;54.14
42001;BME280;27689;48.390;10.856;2023-04-07T00:03:59;96126.94;;;7.03;54.43
42001;BME280;27689;48.390;10.856;2023-04-07T00:06:43;96132.16;;;7.03;54.33
42001;BME280;27689;48.390;10.856;2023-04-07T00:09:28;96128.47;;;7.05;54.05
42001;BME280;27689;48.390;10.856;2023-04-07T00:12:12;96128.28;;;6.97;54.41
42001;BME280;27689;48.390;10.856;2023-04-07T00:14:56;96120.47;;;6.97;54.38
42001;BME280;27689;48.390;10.856;2023-04-07T00:17:40;96121.56;;;7.16;53.90
42001;BME280;27689;48.390;10.856;2023-04-07T00:20:24;96118.41;;;7.12;53.91
42001;BME280;27689;48.390;10.856;2023-04-07T00:23:08;96128.34;;;7.07;54.25
42001;BME280;27689;48.390;10.856;2023-04-07T00:25:52;96117.81;;;7.08;54.44
42001;BME280;27689;48.390;10.856;2023-04-07T00:28:36;96125.28;;;7.02;55.09
42001;BME280;27689;48.390;10.856;2023-04-07T00:31:20;96116.75;;;7.00;55.46
42001;BME280;27689;48.390;10.856;2023-04-07T00:34:04;96122.81;;;7.00;55.93
42001;BME280;27689;48.390;10.856;2023-04-07T00:36:48;96121.28;;;6.98;55.90
42001;BME280;27689;48.390;10.856;2023-04-07T00:39:34;96120.19;;;7.00;56.29
42001;BME280;27689;48.390;10.856;2023-04-07T00:42:20;96112.06;;;6.94;56.74
42001;BME280;27689;48.390;10.856;2023-04-07T00:45:04;96110.06;;;6.97;57.31
42001;BME280;27689;48.390;10.856;2023-04-07T00:47:48;96109.38;;;6.84;58.47
42001;BME280;27689;48.390;10.856;2023-04-07T00:50:32;96108.28;;;6.87;59.05
42001;BME280;27689;48.390;10.856;2023-04-07T00:53:16;96108.19;;;6.88;59.50
42001;BME280;27689;48.390;10.856;2023-04-07T00:56:00;96106.63;;;6.86;60.73
42001;BME280;27689;48.390;10.856;2023-04-07T00:58:44;96109.25;;;6.86;61.64
42001;BME280;27689;48.390;10.856;2023-04-07T01:01:58;96113.78;;;6.72;62.59
42001;BME280;27689;48.390;10.856;2023-04-07T01:04:50;96107.16;;;6.68;63.22
42001;BME280;27689;48.390;10.856;2023-04-07T01:08:12;96100.06;;;6.70;63.66
42001;BME280;27689;48.390;10.856;2023-04-07T01:11:07;96102.13;;;6.67;64.70
42001;BME280;27689;48.390;10.856;2023-04-07T01:13:53;96100.22;;;6.58;65.62
42001;BME280;27689;48.390;10.856;2023-04-07T01:16:49;96101.88;;;6.59;66.69
42001;BME280;27689;48.390;10.856;2023-04-07T01:19:37;96102.91;;;6.35;69.37
42001;BME280;27689;48.390;10.856;2023-04-07T01:22:31;96102.16;;;6.45;69.28
42001;BME280;27689;48.390;10.856;2023-04-07T01:25:25;96094.03;;;6.38;71.03
42001;BME280;27689;48.390;10.856;2023-04-07T01:31:25;96097.69;;;6.24;73.05
42001;BME280;27689;48.390;10.856;2023-04-07T01:34:09;96101.47;;;6.31;72.78
42001;BME280;27689;48.390;10.856;2023-04-07T01:36:55;96106.34;;;6.36;73.92
42001;BME280;27689;48.390;10.856;2023-04-07T01:39:41;96100.56;;;6.21;74.51
42001;BME280;27689;48.390;10.856;2023-04-07T01:42:25;96094.78;;;6.07;76.98
42001;BME280;27689;48.390;10.856;2023-04-07T01:45:10;96100.09;;;6.16;75.40
42001;BME280;27689;48.390;10.856;2023-04-07T01:47:54;96102.09;;;6.13;77.62
42001;BME280;27689;48.390;10.856;2023-04-07T01:50:38;96095.34;;;6.10;78.29
42001;BME280;27689;48.390;10.856;2023-04-07T01:53:23;96091.22;;;5.96;80.78
42001;BME280;27689;48.390;10.856;2023-04-07T01:56:08;96095.16;;;5.91;81.65
42001;BME280;27689;48.390;10.856;2023-04-07T01:58:52;96090.72;;;5.80;83.35
42001;BME280;27689;48.390;10.856;2023-04-07T02:01:36;96085.69;;;5.90;83.24
42001;BME280;27689;48.390;10.856;2023-04-07T02:04:30;96094.41;;;6.00;82.82
42001;BME280;27689;48.390;10.856;2023-04-07T02:07:20;96084.72;;;6.02;82.89
42001;BME280;27689;48.390;10.856;2023-04-07T02:10:06;96088.38;;;5.99;84.68
42001;BME280;27689;48.390;10.856;2023-04-07T02:12:51;96082.38;;;5.99;84.32
42001;BME280;27689;48.390;10.856;2023-04-07T02:15:36;96088.06;;;5.93;85.33
42001;BME280;27689;48.390;10.856;2023-04-07T02:18:22;96094.53;;;5.98;85.83
42001;BME280;27689;48.390;10.856;2023-04-07T02:21:06;96078.09;;;5.87;87.77
42001;BME280;27689;48.390;10.856;2023-04-07T02:23:51;96081.19;;;5.92;87.12
42001;BME280;27689;48.390;10.856;2023-04-07T02:26:35;96076.13;;;5.90;87.79
42001;BME280;27689;48.390;10.856;2023-04-07T02:29:19;96080.00;;;5.96;89.26
42001;BME280;27689;48.390;10.856;2023-04-07T02:32:04;96082.59;;;5.96;89.68
42001;BME280;27689;48.390;10.856;2023-04-07T02:34:48;96076.06;;;5.79;89.72
42001;BME280;27689;48.390;10.856;2023-04-07T02:37:32;96071.34;;;5.73;91.03
42001;BME280;27689;48.390;10.856;2023-04-07T02:40:16;96077.16;;;5.77;91.24
42001;BME280;27689;48.390;10.856;2023-04-07T02:43:00;96068.28;;;5.68;90.35
42001;BME280;27689;48.390;10.856;2023-04-07T02:45:44;96068.41;;;5.66;91.64
42001;BME280;27689;48.390;10.856;2023-04-07T02:48:28;96058.13;;;5.65;92.16
42001;BME280;27689;48.390;10.856;2023-04-07T02:51:12;96061.09;;;5.60;92.47
42001;BME280;27689;48.390;10.856;2023-04-07T02:53:56;96061.19;;;5.59;92.84
42001;BME280;27689;48.390;10.856;2023-04-07T02:56:40;96062.63;;;5.63;91.46
42001;BME280;27689;48.390;10.856;2023-04-07T02:59:23;96054.22;;;5.59;92.67
42001;BME280;27689;48.390;10.856;2023-04-07T03:02:07;96062.47;;;5.64;93.16
42001;BME280;27689;48.390;10.856;2023-04-07T03:04:52;96064.97;;;5.66;92.49
42001;BME280;27689;48.390;10.856;2023-04-07T03:07:36;96059.31;;;5.72;92.44
42001;BME280;27689;48.390;10.856;2023-04-07T03:10:20;96055.66;;;5.75;92.38
42001;BME280;27689;48.390;10.856;2023-04-07T03:13:04;96053.75;;;5.65;95.04
42001;BME280;27689;48.390;10.856;2023-04-07T03:15:48;96049.50;;;5.53;97.73
42001;BME280;27689;48.390;10.856;2023-04-07T03:18:32;96043.13;;;5.46;97.39
42001;BME280;27689;48.390;10.856;2023-04-07T03:21:16;96043.81;;;5.37;97.96
42001;BME280;27689;48.390;10.856;2023-04-07T03:24:00;96044.31;;;5.42;97.96
42001;BME280;27689;48.390;10.856;2023-04-07T03:26:44;96036.16;;;5.47;97.19
42001;BME280;27689;48.390;10.856;2023-04-07T03:29:29;96038.28;;;5.42;98.51
42001;BME280;27689;48.390;10.856;2023-04-07T03:32:13;96038.72;;;5.36;99.39
42001;BME280;27689;48.390;10.856;2023-04-07T03:34:57;96036.97;;;5.25;100.00
42001;BME280;27689;48.390;10.856;2023-04-07T03:37:40;96031.03;;;5.12;100.00
42001;BME280;27689;48.390;10.856;2023-04-07T03:40:24;96033.97;;;5.07;100.00
42001;BME280;27689;48.390;10.856;2023-04-07T03:43:08;96037.78;;;5.14;100.00
42001;BME280;27689;48.390;10.856;2023-04-07T03:45:56;96030.22;;;5.22;100.00
42001;BME280;27689;48.390;10.856;2023-04-07T03:48:40;96028.59;;;5.32;98.86
42001;BME280;27689;48.390;10.856;2023-04-07T03:51:25;96019.50;;;5.38;98.49
42001;BME280;27689;48.390;10.856;2023-04-07T03:54:19;96016.22;;;5.47;97.48
42001;BME280;27689;48.390;10.856;2023-04-07T03:57:04;96021.75;;;5.43;98.11
42001;BME280;27689;48.390;10.856;2023-04-07T03:59:49;96016.19;;;5.36;98.99
42001;BME280;27689;48.390;10.856;2023-04-07T04:02:34;96013.13;;;5.42;98.52
42001;BME280;27689;48.390;10.856;2023-04-07T04:05:18;96011.84;;;5.48;98.14
42001;BME280;27689;48.390;10.856;2023-04-07T04:08:02;96005.22;;;5.55;97.23
42001;BME280;27689;48.390;10.856;2023-04-07T04:10:46;96007.09;;;5.53;97.00
42001;BME280;27689;48.390;10.856;2023-04-07T04:13:30;96004.16;;;5.57;96.33
42001;BME280;27689;48.390;10.856;2023-04-07T04:16:15;96009.09;;;5.49;96.22
42001;BME280;27689;48.390;10.856;2023-04-07T04:18:58;96002.97;;;5.50;95.82
42001;BME280;27689;48.390;10.856;2023-04-07T04:21:42;96011.56;;;5.51;96.57
42001;BME280;27689;48.390;10.856;2023-04-07T04:24:26;95999.19;;;5.43;96.34
42001;BME280;27689;48.390;10.856;2023-04-07T04:27:10;95993.16;;;5.43;96.70
42001;BME280;27689;48.390;10.856;2023-04-07T04:29:54;96009.91;;;5.50;96.08
42001;BME280;27689;48.390;10.856;2023-04-07T04:32:38;96002.13;;;5.39;97.06
42001;BME280;27689;48.390;10.856;2023-04-07T04:35:22;96004.03;;;5.25;99.08
42001;BME280;27689;48.390;10.856;2023-04-07T04:38:06;96002.38;;;5.13;100.00
42001;BME280;27689;48.390;10.856;2023-04-07T04:40:51;96002.38;;;5.13;100.00
42001;BME280;27689;48.390;10.856;2023-04-07T04:43:34;96004.03;;;5.14;100.00
42001;BME280;27689;48.390;10.856;2023-04-07T04:46:19;95998.59;;;5.17;100.00
42001;BME280;27689;48.390;10.856;2023-04-07T04:49:03;96003.31;;;5.12;100.00
42001;BME280;27689;48.390;10.856;2023-04-07T04:51:47;96007.66;;;5.12;100.00
42001;BME280;27689;48.390;10.856;2023-04-07T04:54:31;96007.19;;;5.07;100.00
42001;BME280;27689;48.390;10.856;2023-04-07T04:57:16;96009.88;;;5.05;100.00
42001;BME280;27689;48.390;10.856;2023-04-07T04:59:59;96009.75;;;4.95;100.00
42001;BME280;27689;48.390;10.856;2023-04-07T05:02:43;96009.31;;;5.02;100.00
42001;BME280;27689;48.390;10.856;2023-04-07T05:05:29;96010.03;;;5.04;100.00
42001;BME280;27689;48.390;10.856;2023-04-07T05:08:13;96000.47;;;5.04;100.00
42001;BME280;27689;48.390;10.856;2023-04-07T05:10:57;95991.84;;;5.04;100.00
42001;BME280;27689;48.390;10.856;2023-04-07T05:13:41;96005.19;;;4.99;100.00
42001;BME280;27689;48.390;10.856;2023-04-07T05:16:25;95998.44;;;4.96;100.00
42001;BME280;27689;48.390;10.856;2023-04-07T05:19:09;95994.78;;;4.99;100.00
42001;BME280;27689;48.390;10.856;2023-04-07T05:21:53;95993.75;;;5.02;100.00
42001;BME280;27689;48.390;10.856;2023-04-07T05:24:37;95993.59;;;4.92;100.00
42001;BME280;27689;48.390;10.856;2023-04-07T05:27:21;95996.66;;;4.97;100.00
42001;BME280;27689;48.390;10.856;2023-04-07T05:30:06;95993.47;;;4.93;100.00
42001;BME280;27689;48.390;10.856;2023-04-07T05:32:51;96000.44;;;4.93;100.00
42001;BME280;27689;48.390;10.856;2023-04-07T05:35:36;95992.66;;;4.93;100.00
42001;BME280;27689;48.390;10.856;2023-04-07T05:38:20;95992.66;;;4.93;100.00
42001;BME280;27689;48.390;10.856;2023-04-07T05:41:04;95989.59;;;4.88;100.00
42001;BME280;27689;48.390;10.856;2023-04-07T05:43:48;95986.06;;;4.89;100.00
42001;BME280;27689;48.390;10.856;2023-04-07T05:46:32;95977.78;;;4.95;100.00
42001;BME280;27689;48.390;10.856;2023-04-07T05:49:16;95976.41;;;5.02;100.00
42001;BME280;27689;48.390;10.856;2023-04-07T05:52:00;95982.88;;;4.96;100.00
42001;BME280;27689;48.390;10.856;2023-04-07T05:54:46;95983.09;;;4.93;100.00
42001;BME280;27689;48.390;10.856;2023-04-07T05:57:31;95980.50;;;4.93;100.00
42001;BME280;27689;48.390;10.856;2023-04-07T06:00:16;95979.22;;;4.99;100.00
42001;BME280;27689;48.390;10.856;2023-04-07T06:03:00;95977.34;;;5.01;100.00
42001;BME280;27689;48.390;10.856;2023-04-07T06:05:45;95970.72;;;5.08;100.00
42001;BME280;27689;48.390;10.856;2023-04-07T06:08:29;95968.25;;;5.07;100.00
42001;BME280;27689;48.390;10.856;2023-04-07T06:11:13;95970.84;;;5.07;100.00
42001;BME280;27689;48.390;10.856;2023-04-07T06:13:57;95970.94;;;5.05;100.00
42001;BME280;27689;48.390;10.856;2023-04-07T06:16:41;95976.97;;;5.06;100.00
42001;BME280;27689;48.390;10.856;2023-04-07T06:19:25;95975.19;;;5.06;100.00
42001;BME280;27689;48.390;10.856;2023-04-07T06:22:10;95970.84;;;5.07;100.00
42001;BME280;27689;48.390;10.856;2023-04-07T06:24:54;95968.00;;;5.10;100.00
42001;BME280;27689;48.390;10.856;2023-04-07T06:27:38;95973.81;;;5.13;100.00
42001;BME280;27689;48.390;10.856;2023-04-07T06:30:22;95967.66;;;5.14;100.00
42001;BME280;27689;48.390;10.856;2023-04-07T06:33:06;95969.56;;;5.12;100.00
42001;BME280;27689;48.390;10.856;2023-04-07T06:35:50;95974.41;;;5.17;100.00
42001;BME280;27689;48.390;10.856;2023-04-07T06:38:35;95971.91;;;5.15;100.00
42001;BME280;27689;48.390;10.856;2023-04-07T06:41:19;95975.22;;;5.17;100.00
42001;BME280;27689;48.390;10.856;2023-04-07T06:44:03;95976.06;;;5.18;100.00
42001;BME280;27689;48.390;10.856;2023-04-07T06:46:47;95970.88;;;5.18;100.00
42001;BME280;27689;48.390;10.856;2023-04-07T06:49:35;95974.75;;;5.23;100.00
42001;BME280;27689;48.390;10.856;2023-04-07T06:52:19;95970.50;;;5.34;100.00
42001;BME280;27689;48.390;10.856;2023-04-07T06:55:03;95961.31;;;5.18;100.00
42001;BME280;27689;48.390;10.856;2023-04-07T06:57:48;95963.06;;;5.29;100.00
42001;BME280;27689;48.390;10.856;2023-04-07T07:00:35;95958.91;;;5.38;100.00
42001;BME280;27689;48.390;10.856;2023-04-07T07:03:19;95965.41;;;5.43;100.00
42001;BME280;27689;48.390;10.856;2023-04-07T07:06:03;95964.34;;;5.35;100.00
42001;BME280;27689;48.390;10.856;2023-04-07T07:08:47;95959.75;;;5.38;100.00
42001;BME280;27689;48.390;10.856;2023-04-07T07:11:31;95959.63;;;5.40;100.00
42001;BME280;27689;48.390;10.856;2023-04-07T07:14:15;95960.13;;;5.34;100.00
42001;BME280;27689;48.390;10.856;2023-04-07T07:16:59;95967.78;;;5.46;100.00
42001;BME280;27689;48.390;10.856;2023-04-07T07:19:43;95968.84;;;5.55;100.00
42001;BME280;27689;48.390;10.856;2023-04-07T07:22:27;95966.47;;;5.52;100.00
42001;BME280;27689;48.390;10.856;2023-04-07T07:25:11;95970.13;;;5.49;100.00
42001;BME280;27689;48.390;10.856;2023-04-07T07:27:56;95976.16;;;5.61;100.00
42001;BME280;27689;48.390;10.856;2023-04-07T07:30:40;95969.78;;;5.54;100.00
42001;BME280;27689;48.390;10.856;2023-04-07T07:33:24;95972.72;;;5.60;100.00
42001;BME280;27689;48.390;10.856;2023-04-07T07:36:09;95975.91;;;5.64;100.00
42001;BME280;27689;48.390;10.856;2023-04-07T07:38:53;95971.53;;;5.76;100.00
42001;BME280;27689;48.390;10.856;2023-04-07T07:41:37;95968.06;;;5.86;100.00
42001;BME280;27689;48.390;10.856;2023-04-07T07:44:21;95972.84;;;5.92;100.00
42001;BME280;27689;48.390;10.856;2023-04-07T07:47:06;95963.53;;;6.11;99.73
42001;BME280;27689;48.390;10.856;2023-04-07T07:49:50;95960.47;;;6.17;98.78
42001;BME280;27689;48.390;10.856;2023-04-07T07:52:35;95959.00;;;6.24;98.43
42001;BME280;27689;48.390;10.856;2023-04-07T07:55:19;95960.03;;;6.32;96.92
42001;BME280;27689;48.390;10.856;2023-04-07T07:58:03;95963.69;;;6.62;98.86
42001;BME280;27689;48.390;10.856;2023-04-07T08:00:47;95955.75;;;6.63;94.03
42001;BME280;27689;48.390;10.856;2023-04-07T08:03:32;95969.03;;;6.81;95.14
42001;BME280;27689;48.390;10.856;2023-04-07T08:06:16;95958.69;;;6.91;93.22
42001;BME280;27689;48.390;10.856;2023-04-07T08:09:00;95954.88;;;6.95;89.34
42001;BME280;27689;48.390;10.856;2023-04-07T08:11:44;95960.34;;;7.22;90.72
42001;BME280;27689;48.390;10.856;2023-04-07T08:14:31;95961.47;;;7.29;90.11
42001;BME280;27689;48.390;10.856;2023-04-07T08:17:15;95965.56;;;7.53;88.75
42001;BME280;27689;48.390;10.856;2023-04-07T08:19:59;95971.38;;;7.75;87.93
42001;BME280;27689;48.390;10.856;2023-04-07T08:22:44;95966.75;;;7.89;85.85
42001;BME280;27689;48.390;10.856;2023-04-07T08:25:28;95957.44;;;8.05;84.29
42001;BME280;27689;48.390;10.856;2023-04-07T08:28:12;95959.78;;;8.08;83.52
42001;BME280;27689;48.390;10.856;2023-04-07T08:30:56;95950.50;;;8.35;81.14
42001;BME280;27689;48.390;10.856;2023-04-07T08:33:40;95957.91;;;8.49;82.72
42001;BME280;27689;48.390;10.856;2023-04-07T08:36:25;95963.97;;;8.59;80.30
42001;BME280;27689;48.390;10.856;2023-04-07T08:39:10;95953.09;;;8.35;77.79
42001;BME280;27689;48.390;10.856;2023-04-07T08:41:55;95950.78;;;8.51;78.21
42001;BME280;27689;48.390;10.856;2023-04-07T08:44:39;95958.59;;;8.61;76.29
42001;BME280;27689;48.390;10.856;2023-04-07T08:47:24;95951.31;;;8.74;76.28
42001;BME280;27689;48.390;10.856;2023-04-07T08:50:10;95944.13;;;8.95;75.24
42001;BME280;27689;48.390;10.856;2023-04-07T08:52:56;95946.28;;;9.19;78.80
42001;BME280;27689;48.390;10.856;2023-04-07T08:55:43;95938.63;;;9.35;77.98
42001;BME280;27689;48.390;10.856;2023-04-07T08:58:27;95941.44;;;9.61;77.52
42001;BME280;27689;48.390;10.856;2023-04-07T09:01:13;95943.50;;;9.85;76.33
42001;BME280;27689;48.390;10.856;2023-04-07T09:03:58;95938.09;;;10.14;75.46
42001;BME280;27689;48.390;10.856;2023-04-07T09:06:43;95935.22;;;10.35;72.78
42001;BME280;27689;48.390;10.856;2023-04-07T09:09:26;95942.09;;;10.53;70.72
42001;BME280;27689;48.390;10.856;2023-04-07T09:12:10;95931.91;;;10.68;68.63
42001;BME280;27689;48.390;10.856;2023-04-07T09:14:54;95937.44;;;10.65;64.98
42001;BME280;27689;48.390;10.856;2023-04-07T09:17:39;95932.56;;;10.70;68.56
42001;BME280;27689;48.390;10.856;2023-04-07T09:20:23;95936.88;;;10.97;66.55
42001;BME280;27689;48.390;10.856;2023-04-07T09:23:26;95944.88;;;10.95;63.14
42001;BME280;27689;48.390;10.856;2023-04-07T09:26:26;95944.75;;;10.79;64.10
42001;BME280;27689;48.390;10.856;2023-04-07T09:29:17;95944.19;;;10.68;64.34
42001;BME280;27689;48.390;10.856;2023-04-07T09:32:02;95938.47;;;10.72;66.67
42001;BME280;27689;48.390;10.856;2023-04-07T09:34:46;95936.28;;;10.85;64.95
42001;BME280;27689;48.390;10.856;2023-04-07T09:37:41;95935.44;;;10.85;64.81
42001;BME280;27689;48.390;10.856;2023-04-07T09:40:25;95932.19;;;11.09;64.97
42001;BME280;27689;48.390;10.856;2023-04-07T09:43:18;95925.97;;;11.10;64.34
42001;BME280;27689;48.390;10.856;2023-04-07T09:46:06;95934.81;;;11.09;62.95
42001;BME280;27689;48.390;10.856;2023-04-07T09:49:02;95928.63;;;11.18;65.05
42001;BME280;27689;48.390;10.856;2023-04-07T09:51:58;95928.13;;;11.40;63.89
42001;BME280;27689;48.390;10.856;2023-04-07T09:54:43;95927.72;;;11.27;63.30
42001;BME280;27689;48.390;10.856;2023-04-07T09:57:27;95922.38;;;11.45;64.82
42001;BME280;27689;48.390;10.856;2023-04-07T10:00:11;95924.78;;;11.64;64.97
42001;BME280;27689;48.390;10.856;2023-04-07T10:02:56;95925.22;;;11.51;62.23
42001;BME280;27689;48.390;10.856;2023-04-07T10:05:40;95922.94;;;11.56;63.05
42001;BME280;27689;48.390;10.856;2023-04-07T10:08:26;95932.28;;;11.59;63.64
42001;BME280;27689;48.390;10.856;2023-04-07T10:11:10;95920.66;;;11.61;62.82
42001;BME280;27689;48.390;10.856;2023-04-07T10:13:54;95914.28;;;11.64;64.78
42001;BME280;27689;48.390;10.856;2023-04-07T10:16:41;95919.38;;;11.74;61.93
42001;BME280;27689;48.390;10.856;2023-04-07T10:19:25;95922.09;;;11.82;61.69
42001;BME280;27689;48.390;10.856;2023-04-07T10:22:13;95928.91;;;11.75;62.27
42001;BME280;27689;48.390;10.856;2023-04-07T10:25:05;95930.13;;;11.80;60.66
42001;BME280;27689;48.390;10.856;2023-04-07T10:27:57;95925.03;;;11.79;62.07
42001;BME280;27689;48.390;10.856;2023-04-07T10:30:42;95917.19;;;11.53;61.11
42001;BME280;27689;48.390;10.856;2023-04-07T10:33:44;95915.41;;;11.61;61.24
42001;BME280;27689;48.390;10.856;2023-04-07T10:36:29;95920.28;;;11.90;62.67
42001;BME280;27689;48.390;10.856;2023-04-07T10:41:57;95914.66;;;12.44;60.36
42001;BME280;27689;48.390;10.856;2023-04-07T10:47:25;95916.81;;;12.56;59.49
42001;BME280;27689;48.390;10.856;2023-04-07T10:50:20;95928.47;;;12.70;58.68
42001;BME280;27689;48.390;10.856;2023-04-07T10:53:08;95915.66;;;12.83;56.07
42001;BME280;27689;48.390;10.856;2023-04-07T10:55:53;95922.38;;;12.78;60.68
42001;BME280;27689;48.390;10.856;2023-04-07T10:58:39;95916.31;;;12.61;58.89
42001;BME280;27689;48.390;10.856;2023-04-07T11:01:22;95918.25;;;12.34;58.79
42001;BME280;27689;48.390;10.856;2023-04-07T11:04:06;95920.88;;;12.26;60.84
42001;BME280;27689;48.390;10.856;2023-04-07T11:06:51;95917.56;;;12.08;59.49
42001;BME280;27689;48.390;10.856;2023-04-07T11:09:35;95918.69;;;12.06;58.84
42001;BME280;27689;48.390;10.856;2023-04-07T11:12:23;95923.56;;;11.84;59.50
42001;BME280;27689;48.390;10.856;2023-04-07T11:15:20;95925.81;;;11.45;61.05
42001;BME280;27689;48.390;10.856;2023-04-07T11:18:17;95930.59;;;11.42;62.06
42001;BME280;27689;48.390;10.856;2023-04-07T11:21:02;95923.47;;;11.34;62.17
42001;BME280;27689;48.390;10.856;2023-04-07T11:23:48;95927.91;;;11.34;62.54
42001;BME280;27689;48.390;10.856;2023-04-07T11:26:39;95922.03;;;11.40;60.81
42001;BME280;27689;48.390;10.856;2023-04-07T11:29:28;95929.03;;;11.31;61.92
42001;BME280;27689;48.390;10.856;2023-04-07T11:32:13;95927.53;;;11.28;61.75
42001;BME280;27689;48.390;10.856;2023-04-07T11:34:57;95931.97;;;11.28;62.69
42001;BME280;27689;48.390;10.856;2023-04-07T11:37:41;95930.22;;;11.37;62.96
42001;BME280;27689;48.390;10.856;2023-04-07T11:40:32;95925.78;;;11.37;63.53
42001;BME280;27689;48.390;10.856;2023-04-07T11:43:19;95919.44;;;11.48;63.07
42001;BME280;27689;48.390;10.856;2023-04-07T11:46:15;95917.84;;;11.55;64.99
42001;BME280;27689;48.390;10.856;2023-04-07T11:49:10;95920.53;;;11.71;62.99
42001;BME280;27689;48.390;10.856;2023-04-07T11:52:00;95917.00;;;11.80;62.75
42001;BME280;27689;48.390;10.856;2023-04-07T11:54:46;95914.56;;;11.87;62.95
42001;BME280;27689;48.390;10.856;2023-04-07T11:57:30;95909.84;;;11.98;62.85
42001;BME280;27689;48.390;10.856;2023-04-07T12:00:15;95908.06;;;12.15;61.33
42001;BME280;27689;48.390;10.856;2023-04-07T12:03:08;95913.34;;;12.31;62.57
42001;BME280;27689;48.390;10.856;2023-04-07T12:05:53;95906.97;;;12.58;61.62
42001;BME280;27689;48.390;10.856;2023-04-07T12:08:39;95913.19;;;12.74;58.79
42001;BME280;27689;48.390;10.856;2023-04-07T12:11:23;95909.41;;;12.52;59.86
42001;BME280;27689;48.390;10.856;2023-04-07T12:14:08;95914.81;;;12.42;61.04
42001;BME280;27689;48.390;10.856;2023-04-07T12:16:52;95915.66;;;12.43;60.89
42001;BME280;27689;48.390;10.856;2023-04-07T12:19:40;95912.38;;;12.41;61.77
42001;BME280;27689;48.390;10.856;2023-04-07T12:22:24;95912.03;;;12.35;60.71
42001;BME280;27689;48.390;10.856;2023-04-07T12:25:09;95909.22;;;12.21;60.93
42001;BME280;27689;48.390;10.856;2023-04-07T12:27:53;95922.19;;;12.14;59.29
42001;BME280;27689;48.390;10.856;2023-04-07T12:30:37;95925.38;;;11.92;60.04
42001;BME280;27689;48.390;10.856;2023-04-07T12:33:20;95912.50;;;11.73;60.30
42001;BME280;27689;48.390;10.856;2023-04-07T12:36:05;95918.84;;;11.62;61.65
42001;BME280;27689;48.390;10.856;2023-04-07T12:38:49;95920.81;;;11.60;61.30
42001;BME280;27689;48.390;10.856;2023-04-07T12:41:35;95914.72;;;11.51;61.97
42001;BME280;27689;48.390;10.856;2023-04-07T12:44:21;95923.88;;;11.47;63.19
42001;BME280;27689;48.390;10.856;2023-04-07T12:47:05;95915.25;;;11.63;64.46
42001;BME280;27689;48.390;10.856;2023-04-07T12:49:49;95915.94;;;11.73;63.50
42001;BME280;27689;48.390;10.856;2023-04-07T12:52:33;95909.47;;;11.85;62.21
42001;BME280;27689;48.390;10.856;2023-04-07T12:55:18;95914.88;;;11.84;62.37
42001;BME280;27689;48.390;10.856;2023-04-07T12:58:02;95907.16;;;11.82;61.43
42001;BME280;27689;48.390;10.856;2023-04-07T13:00:46;95903.41;;;11.85;61.80
42001;BME280;27689;48.390;10.856;2023-04-07T13:03:30;95916.19;;;11.88;60.96
42001;BME280;27689;48.390;10.856;2023-04-07T13:06:14;95910.28;;;11.86;61.65
42001;BME280;27689;48.390;10.856;2023-04-07T13:08:58;95914.09;;;12.08;63.30
42001;BME280;27689;48.390;10.856;2023-04-07T13:11:43;95912.53;;;12.31;60.84
42001;BME280;27689;48.390;10.856;2023-04-07T13:14:26;95905.94;;;12.35;59.74
42001;BME280;27689;48.390;10.856;2023-04-07T13:17:11;95903.94;;;12.21;60.52
42001;BME280;27689;48.390;10.856;2023-04-07T13:19:55;95907.25;;;12.23;60.32
42001;BME280;27689;48.390;10.856;2023-04-07T13:22:39;95897.88;;;12.12;62.05
42001;BME280;27689;48.390;10.856;2023-04-07T13:25:23;95898.84;;;12.19;60.86
42001;BME280;27689;48.390;10.856;2023-04-07T13:28:07;95902.81;;;12.15;61.13
42001;BME280;27689;48.390;10.856;2023-04-07T13:30:51;95910.50;;;12.09;62.86
42001;BME280;27689;48.390;10.856;2023-04-07T13:33:35;95907.88;;;12.00;60.65
42001;BME280;27689;48.390;10.856;2023-04-07T13:36:20;95906.81;;;11.77;61.99
42001;BME280;27689;48.390;10.856;2023-04-07T13:39:04;95910.88;;;11.72;63.88
42001;BME280;27689;48.390;10.856;2023-04-07T13:41:48;95902.06;;;11.81;63.52
42001;BME280;27689;48.390;10.856;2023-04-07T13:44:32;95904.47;;;11.74;63.89
42001;BME280;27689;48.390;10.856;2023-04-07T13:47:17;95905.50;;;11.81;63.42
42001;BME280;27689;48.390;10.856;2023-04-07T13:50:04;95905.69;;;11.88;64.24
42001;BME280;27689;48.390;10.856;2023-04-07T13:52:48;95907.00;;;11.92;63.15
42001;BME280;27689;48.390;10.856;2023-04-07T13:55:32;95907.66;;;11.86;64.08
42001;BME280;27689;48.390;10.856;2023-04-07T13:58:16;95905.53;;;11.89;64.21
42001;BME280;27689;48.390;10.856;2023-04-07T14:01:00;95906.84;;;11.93;64.25
42001;BME280;27689;48.390;10.856;2023-04-07T14:03:44;95901.44;;;11.95;64.16
42001;BME280;27689;48.390;10.856;2023-04-07T14:06:29;95901.28;;;11.96;65.30
42001;BME280;27689;48.390;10.856;2023-04-07T14:09:14;95904.06;;;12.03;64.40
42001;BME280;27689;48.390;10.856;2023-04-07T14:11:58;95901.47;;;12.11;63.88
42001;BME280;27689;48.390;10.856;2023-04-07T14:14:42;95912.16;;;12.02;62.88
42001;BME280;27689;48.390;10.856;2023-04-07T14:17:26;95909.63;;;11.92;62.80
42001;BME280;27689;48.390;10.856;2023-04-07T14:20:09;95917.19;;;11.87;64.10
42001;BME280;27689;48.390;10.856;2023-04-07T14:22:54;95908.97;;;11.90;63.47
42001;BME280;27689;48.390;10.856;2023-04-07T14:25:37;95897.34;;;11.92;64.38
42001;BME280;27689;48.390;10.856;2023-04-07T14:28:22;95911.94;;;11.87;63.80
42001;BME280;27689;48.390;10.856;2023-04-07T14:31:11;95902.88;;;11.81;63.48
42001;BME280;27689;48.390;10.856;2023-04-07T14:33:54;95908.97;;;11.82;63.80
42001;BME280;27689;48.390;10.856;2023-04-07T14:36:38;95902.91;;;11.89;63.81
42001;BME280;27689;48.390;10.856;2023-04-07T14:39:22;95902.78;;;11.99;62.64